Time;durP1;ratioP1;P1;durP2;ratioP2;P2;SDS_P1;SDS_P2;PMS_P1;PMS_P2;Temp;Humidity;BMP_temperature;BMP_pressure;BME280_temperature;BME280_humidity;BME280_pressure;Samples;Min_cycle;Max_cycle;Signal;HPM_P1;HPM_P2
2020/12/12 00:00:54;;;;;;;;;;;;;;;4.24;96.64;99098.38;5066273;28;20362;-72
2020/12/12 00:03:20;;;;;;;;;;;;;;;4.22;96.62;99095.91;5065952;28;20383;-71
2020/12/12 00:05:45;;;;;;;;;;;;;;;4.15;96.00;99097.50;5066796;28;20294;-71
2020/12/12 00:08:10;;;;;;;;;;;;;;;4.24;96.21;99101.88;5065190;28;20333;-71
2020/12/12 00:10:36;;;;;;;;;;;;;;;4.17;96.04;99103.47;5067232;28;20382;-71
2020/12/12 00:13:01;;;;;;;;;;;;;;;4.28;95.84;99105.84;5064806;28;20016;-70
2020/12/12 00:15:27;;;;;;;;;;;;;;;4.21;96.38;99102.16;5065786;28;20615;-70
2020/12/12 00:17:52;;;;;;;;;;;;;;;4.20;95.95;99108.44;5067561;28;19975;-71
2020/12/12 00:20:18;;;;;;;;;;;;;;;4.21;96.58;99104.81;5080120;28;20355;-70
2020/12/12 00:22:43;;;;;;;;;;;;;;;4.22;96.22;99106.47;5048742;28;19920;-71
2020/12/12 00:25:09;;;;;;;;;;;;;;;4.29;96.23;99118.06;5066908;28;20046;-70
2020/12/12 00:27:34;;;;;;;;;;;;;;;4.38;95.84;99112.84;5065888;28;19932;-71
2020/12/12 00:30:00;;;;;;;;;;;;;;;4.24;96.46;99115.06;5064987;28;20009;-70
2020/12/12 00:32:25;;;;;;;;;;;;;;;4.21;96.70;99114.53;5061256;28;20003;-71
2020/12/12 00:34:51;;;;;;;;;;;;;;;4.22;96.57;99119.69;5064786;28;19927;-71
2020/12/12 00:37:18;;;;;;;;;;;;;;;4.21;96.41;99118.00;5077023;28;19920;-71
2020/12/12 00:39:44;;;;;;;;;;;;;;;4.18;97.00;99115.69;5065447;28;20485;-70
2020/12/12 00:42:09;;;;;;;;;;;;;;;4.22;96.67;99121.47;5063822;28;20256;-71
2020/12/12 00:44:35;;;;;;;;;;;;;;;4.17;96.88;99121.94;5064443;28;20040;-71
2020/12/12 00:47:02;;;;;;;;;;;;;;;4.16;97.05;99115.00;5067157;28;19956;-70
2020/12/12 00:49:28;;;;;;;;;;;;;;;4.14;97.34;99115.16;5079485;28;19912;-70
2020/12/12 00:51:53;;;;;;;;;;;;;;;4.17;96.95;99118.47;5067073;28;20422;-70
2020/12/12 00:54:18;;;;;;;;;;;;;;;4.18;97.27;99117.50;5078695;28;19934;-71
2020/12/12 00:56:44;;;;;;;;;;;;;;;4.18;97.74;99115.69;5065940;28;19921;-71
2020/12/12 00:59:09;;;;;;;;;;;;;;;4.24;97.34;99117.72;5063647;28;19923;-71
2020/12/12 01:01:34;;;;;;;;;;;;;;;4.24;96.74;99111.59;5064416;28;19916;-71
2020/12/12 01:03:59;;;;;;;;;;;;;;;4.26;96.76;99117.53;5064061;28;19970;-72
2020/12/12 01:06:25;;;;;;;;;;;;;;;4.23;97.21;99120.50;5060495;28;19964;-71
2020/12/12 01:08:50;;;;;;;;;;;;;;;4.26;97.70;99115.75;5062790;28;19946;-71
2020/12/12 01:11:17;;;;;;;;;;;;;;;4.18;97.66;99118.31;5069597;28;20015;-71
2020/12/12 01:13:42;;;;;;;;;;;;;;;4.18;97.56;99123.59;5063899;28;19923;-71
2020/12/12 01:16:08;;;;;;;;;;;;;;;4.19;97.23;99119.97;5067887;28;19920;-71
2020/12/12 01:18:33;;;;;;;;;;;;;;;4.21;97.07;99127.72;5066785;28;19952;-72
2020/12/12 01:20:59;;;;;;;;;;;;;;;4.19;98.07;99127.91;5067150;28;19969;-71
2020/12/12 01:23:24;;;;;;;;;;;;;;;4.26;97.85;99130.75;5056903;28;19920;-71
2020/12/12 01:25:49;;;;;;;;;;;;;;;4.35;97.15;99131.63;5066009;28;19920;-71
2020/12/12 01:28:15;;;;;;;;;;;;;;;4.31;96.81;99128.50;5068662;28;19928;-71
2020/12/12 01:30:40;;;;;;;;;;;;;;;4.31;96.83;99131.13;5064712;28;19939;-71
2020/12/12 01:33:05;;;;;;;;;;;;;;;4.25;96.96;99132.56;5067432;28;19922;-71
2020/12/12 01:35:31;;;;;;;;;;;;;;;4.27;97.01;99138.53;5066916;28;19974;-71
2020/12/12 01:37:56;;;;;;;;;;;;;;;4.25;96.97;99143.13;5068363;28;19966;-70
2020/12/12 01:40:21;;;;;;;;;;;;;;;4.26;96.91;99144.81;5068290;28;20517;-71
2020/12/12 01:42:46;;;;;;;;;;;;;;;4.26;97.58;99146.59;5065710;28;19919;-71
2020/12/12 01:45:12;;;;;;;;;;;;;;;4.27;97.18;99150.91;5067951;28;20002;-70
2020/12/12 01:47:37;;;;;;;;;;;;;;;4.23;97.44;99152.16;5069113;28;20099;-70
2020/12/12 01:50:03;;;;;;;;;;;;;;;4.24;97.84;99154.69;5064348;28;19912;-70
2020/12/12 01:52:29;;;;;;;;;;;;;;;4.21;97.68;99165.53;5066471;28;22083;-70
2020/12/12 01:54:54;;;;;;;;;;;;;;;4.28;97.72;99165.75;5068431;28;19932;-70
2020/12/12 01:57:20;;;;;;;;;;;;;;;4.31;97.13;99170.75;5085368;28;19969;-71
2020/12/12 01:59:45;;;;;;;;;;;;;;;4.35;97.77;99171.25;5069338;28;19976;-71
2020/12/12 02:02:11;;;;;;;;;;;;;;;4.30;97.49;99174.38;5068434;28;19916;-71
2020/12/12 02:04:37;;;;;;;;;;;;;;;4.31;97.63;99168.09;5067141;28;19912;-71
2020/12/12 02:07:02;;;;;;;;;;;;;;;4.35;97.77;99172.06;5068043;28;19912;-70
2020/12/12 02:09:28;;;;;;;;;;;;;;;4.37;97.61;99180.66;5067753;28;19912;-71
2020/12/12 02:11:53;;;;;;;;;;;;;;;4.34;97.66;99169.59;5068523;28;20018;-71
2020/12/12 02:14:18;;;;;;;;;;;;;;;4.35;97.61;99177.34;5067136;28;19932;-71
2020/12/12 02:16:56;;;;;;;;;;;;;;;4.33;97.83;99178.50;5068889;28;20034;-71
2020/12/12 02:19:22;;;;;;;;;;;;;;;4.32;97.93;99174.19;5068068;28;20294;-71
2020/12/12 02:21:51;;;;;;;;;;;;;;;4.34;97.97;99180.16;5075633;28;19920;-72
2020/12/12 02:24:16;;;;;;;;;;;;;;;4.28;97.46;99177.13;5065660;28;20401;-72
2020/12/12 02:26:42;;;;;;;;;;;;;;;4.34;97.62;99177.50;5082551;28;19916;-72
2020/12/12 02:29:10;;;;;;;;;;;;;;;4.35;97.39;99173.91;5066537;28;20355;-72
2020/12/12 02:31:35;;;;;;;;;;;;;;;4.37;98.02;99174.56;5068172;28;19981;-71
2020/12/12 02:34:01;;;;;;;;;;;;;;;4.37;97.24;99170.09;5063433;28;19936;-72
2020/12/12 02:36:26;;;;;;;;;;;;;;;4.32;97.87;99172.41;5068263;28;19998;-72
2020/12/12 02:38:51;;;;;;;;;;;;;;;4.33;97.40;99175.84;5067541;28;19989;-72
2020/12/12 02:41:16;;;;;;;;;;;;;;;4.38;97.27;99181.53;5067226;28;19960;-72
2020/12/12 02:43:42;;;;;;;;;;;;;;;4.38;97.81;99176.25;5080783;28;19955;-72
2020/12/12 02:46:07;;;;;;;;;;;;;;;4.37;97.80;99185.13;5068610;28;19931;-71
2020/12/12 02:48:32;;;;;;;;;;;;;;;4.39;97.25;99186.63;5067513;28;19928;-71
2020/12/12 02:50:58;;;;;;;;;;;;;;;4.34;97.43;99198.66;5057386;28;19946;-71
2020/12/12 02:53:23;;;;;;;;;;;;;;;4.29;97.96;99185.91;5065491;28;19916;-71
2020/12/12 02:55:48;;;;;;;;;;;;;;;4.33;98.29;99186.41;5063114;28;20374;-70
2020/12/12 02:58:14;;;;;;;;;;;;;;;4.36;97.67;99189.56;5067230;28;19973;-70
2020/12/12 03:00:39;;;;;;;;;;;;;;;4.40;97.54;99188.28;5064861;28;20508;-70
2020/12/12 03:03:04;;;;;;;;;;;;;;;3.80;98.39;99107.13;5076673;28;19916;-70
2020/12/12 03:05:30;;;;;;;;;;;;;;;4.36;98.29;99186.94;5061627;28;19921;-70
2020/12/12 03:07:55;;;;;;;;;;;;;;;4.36;98.05;99194.84;5071366;28;19920;-70
2020/12/12 03:10:20;;;;;;;;;;;;;;;4.35;98.24;99192.38;5067301;28;19917;-70
2020/12/12 03:12:46;;;;;;;;;;;;;;;4.32;98.44;99200.59;5066955;28;19939;-71
2020/12/12 03:15:11;;;;;;;;;;;;;;;4.31;98.51;99199.78;5064956;28;19928;-70
2020/12/12 03:17:36;;;;;;;;;;;;;;;4.30;98.12;99192.84;5066433;28;19912;-71
2020/12/12 03:20:03;;;;;;;;;;;;;;;4.33;98.71;99205.75;5079988;28;19924;-71
2020/12/12 03:22:28;;;;;;;;;;;;;;;4.36;98.51;99199.31;5069798;28;20290;-72
2020/12/12 03:24:53;;;;;;;;;;;;;;;4.33;98.71;99203.13;5064181;28;19920;-71
2020/12/12 03:27:19;;;;;;;;;;;;;;;4.35;98.19;99202.94;5067364;28;20132;-70
2020/12/12 03:29:44;;;;;;;;;;;;;;;4.34;98.67;99207.41;5064902;28;19990;-71
2020/12/12 03:32:10;;;;;;;;;;;;;;;4.35;98.76;99208.22;5065846;28;20007;-71
2020/12/12 03:34:35;;;;;;;;;;;;;;;4.39;98.46;99209.59;5072510;28;20420;-71
2020/12/12 03:37:01;;;;;;;;;;;;;;;4.35;98.35;99211.69;5083965;28;19920;-72
2020/12/12 03:39:26;;;;;;;;;;;;;;;4.33;98.52;99213.69;5073542;28;20003;-72
2020/12/12 03:41:51;;;;;;;;;;;;;;;4.43;98.58;99217.06;5067518;28;19917;-71
2020/12/12 03:44:17;;;;;;;;;;;;;;;4.40;98.12;99217.34;5064527;28;19978;-70
2020/12/12 03:46:42;;;;;;;;;;;;;;;4.38;98.84;99223.78;5069903;28;19959;-70
2020/12/12 03:49:07;;;;;;;;;;;;;;;4.41;98.38;99213.72;5065349;28;19961;-70
2020/12/12 03:51:33;;;;;;;;;;;;;;;4.38;98.59;99214.03;5068070;28;20015;-70
2020/12/12 03:53:58;;;;;;;;;;;;;;;4.39;98.55;99217.50;5064128;28;19959;-74
2020/12/12 03:56:24;;;;;;;;;;;;;;;4.35;98.95;99219.59;5067782;28;19920;-70
2020/12/12 03:58:49;;;;;;;;;;;;;;;4.37;99.33;99217.66;5046898;28;20422;-70
2020/12/12 04:01:15;;;;;;;;;;;;;;;4.37;98.76;99216.84;5076848;28;19925;-70
2020/12/12 04:03:40;;;;;;;;;;;;;;;4.39;98.87;99217.50;5063979;28;19975;-70
2020/12/12 04:06:05;;;;;;;;;;;;;;;4.43;99.10;99221.50;5063525;28;20002;-70
2020/12/12 04:08:31;;;;;;;;;;;;;;;4.39;98.75;99220.97;5063732;28;19916;-70
2020/12/12 04:10:56;;;;;;;;;;;;;;;4.41;99.38;99228.75;5079343;28;20070;-70
2020/12/12 04:13:21;;;;;;;;;;;;;;;4.44;99.40;99231.06;5063685;28;19966;-70
2020/12/12 04:15:47;;;;;;;;;;;;;;;4.41;99.27;99234.03;5064606;28;19920;-70
2020/12/12 04:18:12;;;;;;;;;;;;;;;4.42;99.19;99233.88;5063312;28;19920;-70
2020/12/12 04:20:37;;;;;;;;;;;;;;;4.40;98.98;99235.03;5082778;28;19912;-70
2020/12/12 04:23:03;;;;;;;;;;;;;;;4.42;98.77;99238.31;5062534;28;19979;-70
2020/12/12 04:25:28;;;;;;;;;;;;;;;4.46;98.81;99236.22;5067216;28;19982;-70
2020/12/12 04:27:53;;;;;;;;;;;;;;;4.46;98.68;99239.69;5067165;28;20042;-70
2020/12/12 04:30:19;;;;;;;;;;;;;;;4.44;99.45;99236.34;5065273;28;20403;-70
2020/12/12 04:32:44;;;;;;;;;;;;;;;4.47;98.75;99245.81;5064523;28;19924;-70
2020/12/12 04:35:09;;;;;;;;;;;;;;;4.57;99.13;99249.19;5064842;28;19983;-70
2020/12/12 04:37:34;;;;;;;;;;;;;;;4.52;98.61;99254.09;5065390;28;19917;-70
2020/12/12 04:40:00;;;;;;;;;;;;;;;4.45;99.01;99256.50;5065624;28;19948;-70
2020/12/12 04:42:26;;;;;;;;;;;;;;;4.43;98.92;99259.31;5066389;28;19939;-70
2020/12/12 04:44:51;;;;;;;;;;;;;;;4.42;99.86;99256.81;5062839;28;19991;-71
2020/12/12 04:47:16;;;;;;;;;;;;;;;4.43;99.58;99258.47;5060416;28;19974;-71
2020/12/12 04:49:42;;;;;;;;;;;;;;;4.46;99.49;99255.53;5057125;28;20058;-71
2020/12/12 04:52:07;;;;;;;;;;;;;;;4.46;99.93;99260.81;5065799;28;19916;-71
2020/12/12 04:54:33;;;;;;;;;;;;;;;4.46;100.00;99262.63;5062528;28;20019;-71
2020/12/12 04:57:01;;;;;;;;;;;;;;;4.48;99.97;99268.59;5081222;28;20341;-71
2020/12/12 04:59:26;;;;;;;;;;;;;;;4.44;99.96;99263.63;5064487;28;19912;-71
2020/12/12 05:01:52;;;;;;;;;;;;;;;4.46;99.68;99267.91;5064181;28;19922;-70
2020/12/12 05:04:17;;;;;;;;;;;;;;;4.49;100.00;99276.38;5060780;28;19912;-70
2020/12/12 05:06:42;;;;;;;;;;;;;;;4.49;100.00;99272.88;5070955;28;19939;-70
2020/12/12 05:09:08;;;;;;;;;;;;;;;4.52;99.78;99280.50;5068036;28;19948;-71
2020/12/12 05:11:33;;;;;;;;;;;;;;;4.49;100.00;99276.38;5070395;28;19921;-71
2020/12/12 05:13:59;;;;;;;;;;;;;;;4.56;99.33;99285.31;5067215;28;19946;-71
2020/12/12 05:16:24;;;;;;;;;;;;;;;4.51;99.70;99287.63;5067444;28;19948;-70
2020/12/12 05:18:49;;;;;;;;;;;;;;;4.48;99.57;99281.81;5057837;28;19927;-70
2020/12/12 05:21:15;;;;;;;;;;;;;;;4.48;100.00;99289.75;5057986;28;19920;-70
2020/12/12 05:23:40;;;;;;;;;;;;;;;4.52;100.00;99284.00;5064225;28;19990;-70
2020/12/12 05:26:06;;;;;;;;;;;;;;;4.51;100.00;99287.63;5067765;28;19956;-70
2020/12/12 05:28:31;;;;;;;;;;;;;;;4.52;99.90;99288.44;5044732;28;19955;-71
2020/12/12 05:30:56;;;;;;;;;;;;;;;4.52;100.00;99294.56;5069420;28;19943;-71
2020/12/12 05:33:22;;;;;;;;;;;;;;;4.53;100.00;99292.72;5067431;28;19917;-71
2020/12/12 05:35:48;;;;;;;;;;;;;;;4.53;100.00;99290.94;5084058;28;20396;-72
2020/12/12 05:38:13;;;;;;;;;;;;;;;4.04;100.00;99219.19;5067747;28;19935;-71
2020/12/12 05:40:39;;;;;;;;;;;;;;;4.55;100.00;99301.34;5050236;28;19919;-72
2020/12/12 05:43:05;;;;;;;;;;;;;;;4.51;100.00;99303.47;5070622;28;19913;-70
2020/12/12 05:45:30;;;;;;;;;;;;;;;4.54;100.00;99300.53;5083288;28;19917;-71
2020/12/12 05:47:56;;;;;;;;;;;;;;;4.55;100.00;99310.09;5068514;28;20581;-71
2020/12/12 05:50:22;;;;;;;;;;;;;;;4.54;100.00;99305.81;5068494;28;19942;-71
2020/12/12 05:52:49;;;;;;;;;;;;;;;4.57;100.00;99307.31;5083572;28;19924;-71
2020/12/12 05:55:15;;;;;;;;;;;;;;;4.57;100.00;99317.88;5083277;28;19916;-71
2020/12/12 05:57:40;;;;;;;;;;;;;;;4.55;100.00;99314.56;5050748;28;19924;-71
2020/12/12 06:00:05;;;;;;;;;;;;;;;4.57;100.00;99323.97;5068334;28;19912;-71
2020/12/12 06:02:32;;;;;;;;;;;;;;;4.62;100.00;99327.97;5068330;28;19965;-71
2020/12/12 06:04:57;;;;;;;;;;;;;;;4.66;100.00;99329.34;5067232;28;19923;-71
2020/12/12 06:07:23;;;;;;;;;;;;;;;4.59;100.00;99332.59;5083049;28;19986;-71
2020/12/12 06:09:48;;;;;;;;;;;;;;;4.63;100.00;99327.81;5067835;28;20007;-71
2020/12/12 06:12:16;;;;;;;;;;;;;;;4.60;100.00;99325.50;5075714;28;20375;-71
2020/12/12 06:14:41;;;;;;;;;;;;;;;4.60;100.00;99330.78;5065868;28;20398;-71
2020/12/12 06:17:07;;;;;;;;;;;;;;;4.66;100.00;99334.63;5067353;28;19960;-72
2020/12/12 06:19:32;;;;;;;;;;;;;;;4.21;100.00;99257.97;5067386;28;20003;-71
2020/12/12 06:21:57;;;;;;;;;;;;;;;4.72;100.00;99339.28;5067433;28;19927;-71
2020/12/12 06:24:23;;;;;;;;;;;;;;;4.69;100.00;99337.81;5066693;28;19970;-71
2020/12/12 06:26:48;;;;;;;;;;;;;;;4.67;100.00;99347.69;5070546;28;19962;-71
2020/12/12 06:29:14;;;;;;;;;;;;;;;4.67;100.00;99347.69;5045004;28;19966;-71
2020/12/12 06:31:40;;;;;;;;;;;;;;;4.64;100.00;99355.09;5066424;28;19912;-72
2020/12/12 06:34:05;;;;;;;;;;;;;;;4.67;100.00;99352.97;5080963;28;19939;-72
2020/12/12 06:36:31;;;;;;;;;;;;;;;4.67;100.00;99360.09;5067424;28;19967;-73
2020/12/12 06:39:29;;;;;;;;;;;;;;;4.64;100.00;99353.28;5065814;28;19913;-72
2020/12/12 06:41:55;;;;;;;;;;;;;;;4.67;100.00;99358.25;5025178;28;19923;-71
2020/12/12 06:44:36;;;;;;;;;;;;;;;4.66;100.00;99371.63;5067359;28;19913;-71
2020/12/12 06:47:02;;;;;;;;;;;;;;;4.63;100.00;99370.09;5055796;28;19966;-71
2020/12/12 06:49:27;;;;;;;;;;;;;;;4.62;100.00;99376.38;5070147;28;19920;-71
2020/12/12 06:51:52;;;;;;;;;;;;;;;4.61;100.00;99369.44;5066603;28;20380;-72
2020/12/12 06:54:18;;;;;;;;;;;;;;;4.67;100.00;99379.41;5045737;28;19982;-71
2020/12/12 06:56:43;;;;;;;;;;;;;;;4.67;100.00;99384.69;5069236;28;19920;-71
2020/12/12 06:59:27;;;;;;;;;;;;;;;4.66;100.00;99383.00;5071928;28;19936;-71
2020/12/12 07:01:53;;;;;;;;;;;;;;;4.70;100.00;99391.47;5067356;28;19986;-72
2020/12/12 07:04:22;;;;;;;;;;;;;;;4.78;100.00;99388.06;5069805;28;20539;-72
2020/12/12 07:06:47;;;;;;;;;;;;;;;4.77;100.00;99396.97;5073354;28;20302;-72
2020/12/12 07:09:12;;;;;;;;;;;;;;;4.78;100.00;99402.13;5070953;28;19913;-72
2020/12/12 07:11:38;;;;;;;;;;;;;;;4.77;100.00;99400.47;5070397;28;19995;-72
2020/12/12 07:14:03;;;;;;;;;;;;;;;4.84;100.00;99409.44;5072035;28;20483;-72
2020/12/12 07:16:28;;;;;;;;;;;;;;;4.82;100.00;99411.41;5074197;28;19978;-71
2020/12/12 07:18:54;;;;;;;;;;;;;;;4.51;100.00;99351.03;5072862;28;19920;-72
2020/12/12 07:21:19;;;;;;;;;;;;;;;4.85;100.00;99416.41;5087853;28;20369;-71
2020/12/12 07:23:45;;;;;;;;;;;;;;;4.83;100.00;99412.25;5067337;28;20020;-72
2020/12/12 07:26:10;;;;;;;;;;;;;;;4.84;100.00;99419.19;5069568;28;19916;-71
2020/12/12 07:28:36;;;;;;;;;;;;;;;4.86;100.00;99426.00;5075520;28;19916;-71
2020/12/12 07:31:01;;;;;;;;;;;;;;;4.85;100.00;99426.97;5071031;28;19994;-72
2020/12/12 07:33:27;;;;;;;;;;;;;;;4.88;100.00;99425.84;5071283;28;19915;-72
2020/12/12 07:35:52;;;;;;;;;;;;;;;4.88;100.00;99429.31;5075156;28;19912;-72
2020/12/12 07:38:17;;;;;;;;;;;;;;;4.87;100.00;99438.22;5072498;28;19916;-71
2020/12/12 07:40:43;;;;;;;;;;;;;;;4.88;100.00;99442.53;5067559;28;19931;-71
2020/12/12 07:43:08;;;;;;;;;;;;;;;4.84;100.00;99435.88;5061234;28;19951;-71
2020/12/12 07:48:17;;;;;;;;;;;;;;;4.96;100.00;99452.34;5069245;28;19917;-71
2020/12/12 07:50:43;;;;;;;;;;;;;;;4.95;100.00;99455.16;5069612;28;20015;-70
2020/12/12 07:53:09;;;;;;;;;;;;;;;5.00;100.00;99455.53;5068520;28;19924;-71
2020/12/12 07:55:40;;;;;;;;;;;;;;;4.99;100.00;99470.56;5063231;28;19930;-70
2020/12/12 07:58:06;;;;;;;;;;;;;;;4.99;100.00;99462.63;5080708;28;20042;-71
2020/12/12 08:00:31;;;;;;;;;;;;;;;5.01;100.00;99467.75;5062679;28;20028;-71
2020/12/12 08:02:57;;;;;;;;;;;;;;;5.01;100.00;99475.69;5063842;28;19970;-71
2020/12/12 08:05:22;;;;;;;;;;;;;;;5.03;100.00;99482.50;5062347;28;19919;-71
2020/12/12 08:07:47;;;;;;;;;;;;;;;5.09;100.00;99480.22;5063004;28;19921;-71
2020/12/12 08:10:13;;;;;;;;;;;;;;;5.09;100.00;99485.53;5065198;28;20354;-72
2020/12/12 08:12:39;;;;;;;;;;;;;;;5.10;100.00;99492.47;5066922;28;20604;-71
2020/12/12 08:15:12;;;;;;;;;;;;;;;5.09;100.00;99499.56;5063434;28;20310;-72
2020/12/12 08:17:37;;;;;;;;;;;;;;;5.12;100.00;99493.97;5063327;28;20027;-72
2020/12/12 08:20:03;;;;;;;;;;;;;;;5.12;100.00;99501.09;5052049;28;20011;-72
2020/12/12 08:22:28;;;;;;;;;;;;;;;5.09;100.00;99501.38;5061993;28;19916;-72
2020/12/12 08:24:53;;;;;;;;;;;;;;;5.15;100.00;99509.56;5060197;28;19925;-72
2020/12/12 08:27:25;;;;;;;;;;;;;;;5.15;100.00;99506.91;5052902;28;19912;-72
2020/12/12 08:29:54;;;;;;;;;;;;;;;5.16;100.00;99511.22;5053523;28;20445;-71
2020/12/12 08:32:29;;;;;;;;;;;;;;;5.18;100.00;99508.41;5040949;28;19990;-72
2020/12/12 08:35:07;;;;;;;;;;;;;;;5.18;100.00;99516.34;5074476;28;19924;-72
2020/12/12 08:37:32;;;;;;;;;;;;;;;5.25;100.00;99527.16;5063903;28;19966;-73
2020/12/12 08:43:10;;;;;;;189.43;53.22;;;;;;;5.32;100.00;99530.88;5062718;27;20638;-71
2020/12/12 08:45:59;;;;;;;192.60;53.80;;;;;;;5.37;100.00;99531.22;5037648;28;20040;-71
2020/12/12 08:48:34;;;;;;;177.73;55.47;;;;;;;5.38;100.00;99534.72;5031310;28;20498;-72
2020/12/12 08:51:01;;;;;;;202.45;57.42;;;;;;;5.38;100.00;99543.47;5008640;28;20033;-72
2020/12/12 08:53:26;;;;;;;187.85;60.17;;;;;;;5.42;100.00;99538.75;5053766;28;20036;-71
2020/12/12 08:56:06;;;;;;;142.05;56.15;;;;;;;5.42;100.00;99544.84;5038073;28;20083;-72
2020/12/12 08:58:54;;;;;;;167.63;54.92;;;;;;;5.48;100.00;99552.19;5021707;28;20024;-71
2020/12/12 09:01:38;;;;;;;215.48;60.40;;;;;;;5.46;100.00;99554.16;5052587;28;20030;-71
2020/12/12 09:04:12;;;;;;;190.80;57.78;;;;;;;5.48;100.00;99552.19;5054574;28;20070;-71
2020/12/12 09:06:40;;;;;;;194.65;61.88;;;;;;;5.56;100.00;99556.72;5049772;28;20087;-70
2020/12/12 09:09:19;;;;;;;233.48;59.75;;;;;;;5.58;100.00;99556.56;5050497;28;20094;-71
2020/12/12 09:11:56;;;;;;;196.63;59.72;;;;;;;5.59;100.00;99560.88;5049010;28;20064;-72
2020/12/12 09:14:22;;;;;;;203.23;59.53;;;;;;;5.66;100.00;99568.06;5048195;28;20033;-73
2020/12/12 09:16:52;;;;;;;236.75;63.90;;;;;;;5.76;100.00;99572.44;5039383;28;20555;-73
2020/12/12 09:19:18;;;;;;;203.95;59.63;;;;;;;5.76;100.00;99575.06;5051777;28;20029;-73
2020/12/12 09:21:44;;;;;;;210.40;61.80;;;;;;;5.78;100.00;99584.50;5037399;28;20567;-73
2020/12/12 09:24:09;;;;;;;176.50;59.03;;;;;;;5.86;100.00;99582.94;5020058;28;20051;-73
2020/12/12 09:26:35;;;;;;;218.55;61.30;;;;;;;5.92;100.00;99583.16;5053491;28;20063;-72
2020/12/12 09:29:01;;;;;;;194.35;60.20;;;;;;;5.96;100.00;99587.16;5051503;28;20538;-71
2020/12/12 09:31:27;;;;;;;170.80;56.53;;;;;;;6.01;100.00;99581.44;5053529;28;20701;-72
2020/12/12 09:33:53;;;;;;;223.57;62.22;;;;;;;6.11;100.00;99590.09;5034890;28;20041;-73
2020/12/12 09:36:18;;;;;;;243.65;63.20;;;;;;;6.06;100.00;99573.00;5056768;28;20763;-73
2020/12/12 09:38:44;;;;;;;264.77;62.22;;;;;;;6.18;100.00;99586.81;5037841;28;20040;-73
2020/12/12 09:41:10;;;;;;;267.95;61.22;;;;;;;6.16;100.00;99592.28;5053445;28;20512;-73
2020/12/12 09:43:35;;;;;;;225.10;60.78;;;;;;;6.23;100.00;99595.13;5055705;28;20039;-73
2020/12/12 09:46:01;;;;;;;164.00;55.65;;;;;;;6.27;100.00;99599.97;5051827;28;20032;-73
2020/12/12 09:48:27;;;;;;;238.60;62.25;;;;;;;6.30;100.00;99600.66;5022643;28;20041;-72
2020/12/12 09:50:52;;;;;;;190.77;59.90;;;;;;;6.38;100.00;99611.31;5031559;28;20040;-74
2020/12/12 09:53:18;;;;;;;269.85;62.97;;;;;;;6.41;100.00;99613.63;5038651;28;20160;-74
2020/12/12 09:55:43;;;;;;;256.95;62.22;;;;;;;6.38;100.00;99604.19;5013584;28;20047;-74
2020/12/12 09:58:09;;;;;;;228.63;59.58;;;;;;;6.49;100.00;99623.47;4996628;28;20048;-74
2020/12/12 10:00:40;;;;;;;204.45;59.58;;;;;;;6.53;100.00;99617.69;5018635;28;20044;-74
2020/12/12 10:03:05;;;;;;;197.50;60.35;;;;;;;6.55;100.00;99626.31;5012734;28;20040;-73
2020/12/12 10:05:34;;;;;;;261.05;66.10;;;;;;;6.56;100.00;99627.97;5032133;28;20051;-74
2020/12/12 10:08:00;;;;;;;199.95;60.50;;;;;;;6.07;100.00;99554.31;5018151;28;20047;-73
2020/12/12 10:10:26;;;;;;;240.23;66.22;;;;;;;6.62;100.00;99637.13;5018142;28;20040;-73
2020/12/12 10:12:51;;;;;;;213.75;60.63;;;;;;;6.66;100.00;99637.63;5017103;28;20305;-73
2020/12/12 10:15:17;;;;;;;215.43;61.05;;;;;;;6.70;100.00;99642.47;5030358;28;20946;-72
2020/12/12 10:17:43;;;;;;;240.30;61.90;;;;;;;6.74;100.00;99638.50;5034506;28;20028;-72
2020/12/12 10:20:08;;;;;;;177.57;56.83;;;;;;;6.77;100.00;99639.19;5037529;28;20544;-72
2020/12/12 10:22:34;;;;;;;195.05;57.47;;;;;;;6.91;100.00;99635.13;5017126;28;20124;-72
2020/12/12 10:25:00;;;;;;;251.32;62.90;;;;;;;6.88;100.00;99636.25;5030236;28;20047;-72
2020/12/12 10:27:26;;;;;;;212.30;61.83;;;;;;;6.49;100.00;99584.53;5034881;28;20041;-72
2020/12/12 10:29:51;;;;;;;238.00;64.78;;;;;;;6.95;100.00;99647.91;5004185;28;20045;-72
2020/12/12 10:32:17;;;;;;;240.95;64.55;;;;;;;6.98;100.00;99644.09;5036699;28;20041;-72
2020/12/12 10:34:42;;;;;;;205.20;59.38;;;;;;;7.13;100.00;99646.97;5036864;28;20543;-72
2020/12/12 10:37:08;;;;;;;184.18;56.00;;;;;;;6.97;100.00;99619.41;5038574;28;20124;-73
2020/12/12 10:39:39;;;;;;;254.23;61.63;;;;;;;7.24;100.00;99654.66;5023574;28;20116;-72
2020/12/12 10:42:05;;;;;;;188.07;58.08;;;;;;;7.17;100.00;99635.91;5020636;28;20053;-72
2020/12/12 10:44:30;;;;;;;160.48;54.67;;;;;;;7.34;100.00;99652.69;5038743;28;20055;-73
2020/12/12 10:46:56;;;;;;;137.75;49.63;;;;;;;7.40;99.94;99659.19;5040431;28;20043;-73
2020/12/12 10:49:21;;;;;;;173.10;58.45;;;;;;;7.37;100.00;99643.56;5038614;28;20082;-72
2020/12/12 10:51:49;;;;;;;179.10;54.97;;;;;;;7.21;99.67;99625.78;5005121;28;20118;-72
2020/12/12 10:54:16;;;;;;;138.02;49.15;;;;;;;7.44;99.98;99655.22;5005139;28;20108;-72
2020/12/12 10:56:43;;;;;;;162.70;51.83;;;;;;;7.41;99.68;99636.09;5040234;28;20032;-72
2020/12/12 10:59:08;;;;;;;167.35;49.17;;;;;;;7.59;100.00;99654.59;5042903;28;20036;-72
2020/12/12 11:01:34;;;;;;;154.75;49.58;;;;;;;7.63;99.97;99653.25;5037704;28;22540;-73
2020/12/12 11:04:00;;;;;;;163.70;50.65;;;;;;;7.68;99.55;99661.56;5019615;28;20153;-75
2020/12/12 11:06:25;;;;;;;159.55;51.58;;;;;;;7.70;99.35;99662.22;5021463;28;20459;-74
2020/12/12 11:08:51;;;;;;;181.15;51.10;;;;;;;7.69;99.13;99671.19;5037905;28;20622;-73
2020/12/12 11:11:19;;;;;;;145.93;48.60;;;;;;;7.78;98.97;99669.38;5040177;28;20116;-73
2020/12/12 11:13:45;;;;;;;136.20;47.80;;;;;;;7.84;98.51;99670.56;5041124;28;20028;-74
2020/12/12 11:16:11;;;;;;;150.38;48.97;;;;;;;7.78;98.97;99674.69;5023982;28;20468;-73
2020/12/12 11:18:37;;;;;;;147.20;47.85;;;;;;;7.29;98.77;99606.41;4988177;28;20732;-72
2020/12/12 11:21:02;;;;;;;154.68;47.45;;;;;;;7.83;99.09;99672.38;5041587;28;20499;-73
2020/12/12 11:23:28;;;;;;;152.90;46.45;;;;;;;7.81;98.83;99680.50;5039537;28;20093;-74
2020/12/12 11:25:55;;;;;;;138.15;44.30;;;;;;;7.78;99.12;99683.47;5023974;28;20120;-74
2020/12/12 11:28:20;;;;;;;127.80;42.83;;;;;;;7.88;99.24;99685.16;5038793;28;20030;-74
2020/12/12 11:30:46;;;;;;;118.68;41.25;;;;;;;7.93;98.97;99696.13;5042330;28;20104;-73
2020/12/12 11:33:11;;;;;;;115.03;41.72;;;;;;;8.06;98.83;99693.81;5003416;28;20136;-75
2020/12/12 11:38:16;;;;;;;129.00;43.58;;;;;;;8.04;98.25;99694.97;5024163;28;20557;-74
2020/12/12 11:46:15;;;;;;;144.18;48.05;;;;;;;8.04;98.77;99695.78;5035232;28;20068;-75
2020/12/12 11:48:44;;;;;;;147.98;48.83;;;;;;;8.05;99.03;99699.31;5036361;28;20132;-74
2020/12/12 11:51:10;;;;;;;169.27;51.88;;;;;;;8.05;99.18;99696.66;5020451;28;20045;-73
2020/12/12 11:53:35;;;;;;;168.38;54.20;;;;;;;8.07;99.23;99699.97;5021925;28;20025;-74
2020/12/12 11:56:01;;;;;;;186.63;56.50;;;;;;;8.06;99.87;99708.94;5021673;28;20035;-76
2020/12/12 11:58:26;;;;;;;197.98;57.03;;;;;;;8.10;99.47;99712.91;5037839;28;20052;-74
2020/12/12 12:00:52;;;;;;;177.15;54.28;;;;;;;7.99;99.44;99686.66;5019922;28;20045;-76
2020/12/12 12:03:18;;;;;;;186.70;56.95;;;;;;;8.20;99.54;99712.75;5034089;28;20044;-74
2020/12/12 12:05:44;;;;;;;158.63;51.55;;;;;;;8.21;98.90;99711.75;5037751;28;20478;-74
2020/12/12 12:08:20;;;;;;;178.52;55.55;;;;;;;7.81;98.85;99658.41;5039755;28;20175;-74
2020/12/12 12:10:56;;;;;;;174.82;54.33;;;;;;;8.23;98.69;99713.25;5009471;28;20506;-75
2020/12/12 12:13:22;;;;;;;165.10;57.22;;;;;;;8.27;98.45;99719.91;5039238;28;20071;-74
2020/12/12 12:15:48;;;;;;;170.48;53.95;;;;;;;8.25;98.05;99724.56;5040001;28;20483;-75
2020/12/12 12:18:13;;;;;;;170.35;54.05;;;;;;;8.24;98.46;99722.06;5039942;28;20124;-74
2020/12/12 12:20:39;;;;;;;162.18;53.63;;;;;;;8.28;98.19;99729.53;5038166;28;20120;-73
2020/12/12 12:23:04;;;;;;;156.50;52.20;;;;;;;8.28;98.46;99734.00;5021384;28;20044;-74
2020/12/12 12:25:30;;;;;;;163.15;52.95;;;;;;;8.25;98.12;99729.88;5038446;28;20048;-74
2020/12/12 12:27:55;;;;;;;149.18;52.80;;;;;;;8.23;98.41;99739.81;5024501;28;20115;-74
2020/12/12 12:30:21;;;;;;;165.00;53.03;;;;;;;8.30;99.06;99733.88;5039588;28;20047;-73